Detall de PIREP

Printer-friendly versionPDF version

[2014/04/21 13:58:00]
Flight IATA:CT1004
Pilot Number:012
Company ICAO:CAT
Aircraft Type:B752/E
PAX:116
Aircraft Registration:PAX
Departing Airport: LRTR
Destination Airport: LFMP
Alternate Airport:LEBL
Online: VATSIM
Route:MOPUG UM859 MAVIR UY553 VEBAL UY574 ZAG UM986 KOTOR UT742 NAKIT UL615 ROTAR UM167 CHI UM859 LAGEN UQ712 ENOBA UZ185 KOLON UM984 PADKO UL127 FJR
Flight Level:F380
No Slew and time accel
No pause
Crash detect
Detect pilot in Cockpit between each 30 and 45 minutes
13:58 Zero fuel Weight: 165184 Lbs, Fuel Weight: 28146 Lbs
13:58 VATSIM:LRTR 211330Z 18011KT 140V210 CAVOK 22/09 Q1009
13:58 VATSIM:LFMP 211336Z 06007KT 030V090 9999 BKN018 SCT060 16/12 Q1004 NOSIG
13:58 EASTER CHARTER
13:58 Parking Brakes off
14:01 Take-off
14:01 Take off Weight: 192782 Lbs
14:01 Wind: 168º @ 011 Knots Heading: 107º
14:01 POS N45º 48´ 40´´ E021º 19´ 53´´
14:01 Gear Up: 174 Knots
14:01 Flaps:2 at 174 Knots
14:01 Flaps:1 at 174 Knots
14:02 Flaps:0 at 199 Knots
14:16 Wind:233º@031 Knots Heading: 255º Ground Speed: 441 Knots Altitude 36856 ft
14:16 TOC
14:16 Fuel Weight: 23361 Lb
14:31 Wind:232º@027 Knots Heading: 260º Ground Speed: 439 Knots Altitude 37844 ft
14:46 Wind:229º@035 Knots Heading: 251º Ground Speed: 425 Knots Altitude 37821 ft
15:01 Wind:233º@028 Knots Heading: 241º Ground Speed: 432 Knots Altitude 37791 ft
15:16 Wind:234º@028 Knots Heading: 264º Ground Speed: 436 Knots Altitude 38802 ft
15:31 Wind:238º@031 Knots Heading: 242º Ground Speed: 431 Knots Altitude 38786 ft
15:45 TOD
15:45 Fuel Weight: 13349 Lb
15:46 Wind:232º@032 Knots Heading: 284º Ground Speed: 433 Knots Altitude 35912 ft
16:01 Wind:204º@003 Knots Heading: 224º Ground Speed: 282 Knots Altitude 9849 ft
16:10 Flaps:1 at 182 Knots
16:10 Flaps:2 at 182 Knots
16:11 Flaps:3 at 167 Knots
16:11 Gear Down: 166 Knots
16:11 Flaps:4 at 147 Knots
16:11 Flaps:5 at 132 Knots
16:11 Flaps:6 at 133 Knots
16:14 TouchDown:Rate -229 ft/min Speed: 129 Knots
16:15 Flaps:2 at 64 Knots
16:15 VATSIM:LFMP 211600Z 09007KT 9999 SCT018 BKN036 15/12 Q1005 NOSIG
16:15 Land
16:15 Wind:111º@007 Knots
16:15 Heading: 331º
16:15 Flight Duration: 02:14
16:15 Landing Weight: 176135 Lbs
16:15 POS N42º 44´ 52´´ E002º 52´ 00´´
16:18 Parking brakes on
16:18 Block to Block Duration: 02:20
16:18 Final Fuel: 10665 Lbls
16:18 Spent Fuel: 17480 Lbls
16:18 Flight Length: 890 NM
16:18 TOD Land Length: 149 NM

Exportar CSV

Powered by Drupal - Modified by Danger4k